createdAt,value
2019-04-22T00:00:44.598Z,41.83
2019-04-22T00:03:20.734Z,41.73
2019-04-22T00:06:12.890Z,41.52
2019-04-22T00:08:49.560Z,41.34
2019-04-22T00:11:32.923Z,40.98
2019-04-22T00:13:58.886Z,42.24
2019-04-22T00:16:34.390Z,42.39
2019-04-22T00:21:42.186Z,42.98
2019-04-22T00:24:10.970Z,42.43
2019-04-22T00:26:45.828Z,43.32
2019-04-22T00:29:39.486Z,43.91
2019-04-22T00:31:54.744Z,43.11
2019-04-22T00:34:22.848Z,43.74
2019-04-22T00:36:54.910Z,44.40
2019-04-22T00:39:35.922Z,44.95
2019-04-22T00:42:07.782Z,44.65
2019-04-22T00:44:43.201Z,44.74
2019-04-22T00:47:17.701Z,44.67
2019-04-22T00:52:16.616Z,44.29
2019-04-22T00:54:54.431Z,44.79
2019-04-22T00:57:28.071Z,45.68
2019-04-22T01:00:01.733Z,45.42
2019-04-22T01:02:37.606Z,44.75
2019-04-22T01:05:15.373Z,44.09
2019-04-22T01:07:45.011Z,44.57
2019-04-22T01:10:23.639Z,44.87
2019-04-22T01:12:44.019Z,45.15
2019-04-22T01:15:23.356Z,44.56
2019-04-22T01:17:52.570Z,43.42
2019-04-22T01:23:00.644Z,44.27
2019-04-22T01:25:30.987Z,44.40
2019-04-22T01:27:57.165Z,44.57
2019-04-22T01:30:30.299Z,45.05
2019-04-22T01:32:53.910Z,45.94
2019-04-22T01:35:37.763Z,46.75
2019-04-22T01:38:17.687Z,46.60
2019-04-22T01:41:02.728Z,46.93
2019-04-22T01:43:34.959Z,47.05
2019-04-22T01:46:02.645Z,46.99
2019-04-22T01:48:44.821Z,47.25
2019-04-22T01:51:00.899Z,47.08
2019-04-22T01:53:42.393Z,46.84
2019-04-22T01:56:13.720Z,46.32
2019-04-22T01:58:42.328Z,44.87
2019-04-22T02:01:25.236Z,44.39
2019-04-22T02:03:54.670Z,45.49
2019-04-22T02:06:30.434Z,43.43
2019-04-22T02:09:10.959Z,43.53
2019-04-22T02:11:39.056Z,43.49
2019-04-22T02:14:05.066Z,44.26
2019-04-22T02:16:48.172Z,44.89
2019-04-22T02:19:19.023Z,46.15
2019-04-22T02:21:42.860Z,47.45
2019-04-22T02:24:18.521Z,47.26
2019-04-22T02:26:46.452Z,46.96
2019-04-22T02:29:22.776Z,45.89
2019-04-22T02:31:59.419Z,45.09
2019-04-22T02:34:37.959Z,44.04
2019-04-22T02:37:05.025Z,44.22
2019-04-22T02:42:10.709Z,44.87
2019-04-22T02:44:44.774Z,45.24
2019-04-22T02:52:26.167Z,45.29
2019-04-22T02:55:01.524Z,45.84
2019-04-22T03:00:18.219Z,47.12
2019-04-22T03:02:50.698Z,47.49
2019-04-22T03:10:29.921Z,48.15
2019-04-22T03:12:52.164Z,46.95
2019-04-22T03:15:23.920Z,46.64
2019-04-22T03:18:09.523Z,46.35
2019-04-22T03:20:42.019Z,46.50
2019-04-22T03:28:27.395Z,46.99
2019-04-22T03:31:40.317Z,46.81
2019-04-22T03:34:39.581Z,46.49
2019-04-22T03:37:06.605Z,45.86
2019-04-22T03:42:02.532Z,43.81
2019-04-22T03:44:35.859Z,43.45
2019-04-22T03:54:40.016Z,41.82
2019-04-22T03:59:41.885Z,36.83
2019-04-22T04:04:43.200Z,32.37
2019-04-22T04:10:08.090Z,29.95
2019-04-22T04:17:52.032Z,28.51
2019-04-22T04:25:27.190Z,28.00
2019-04-22T04:28:23.017Z,28.54
2019-04-22T04:30:29.406Z,28.54
2019-04-22T04:32:56.772Z,27.01
2019-04-22T04:36:03.416Z,28.11
2019-04-22T04:40:33.263Z,27.28
2019-04-22T04:43:07.348Z,28.39
2019-04-22T04:48:21.112Z,27.44
2019-04-22T04:51:07.784Z,26.00
2019-04-22T04:53:29.296Z,25.58
2019-04-22T04:56:03.202Z,26.24
2019-04-22T05:01:07.368Z,28.36
2019-04-22T05:03:49.009Z,29.43
2019-04-22T05:06:12.572Z,29.95
2019-04-22T05:11:16.245Z,30.16
2019-04-22T05:18:54.676Z,29.03
2019-04-22T05:21:21.822Z,28.99
2019-04-22T05:24:02.345Z,28.14
2019-04-22T05:29:03.807Z,26.68
2019-04-22T05:31:37.183Z,27.36
2019-04-22T05:34:14.644Z,27.59
2019-04-22T05:36:47.222Z,27.35
2019-04-22T05:39:45.439Z,25.86
2019-04-22T05:42:08.461Z,25.77
2019-04-22T05:44:48.001Z,25.04
2019-04-22T05:47:14.730Z,23.87
2019-04-22T05:49:41.335Z,24.88
2019-04-22T05:52:20.365Z,23.68
2019-04-22T05:54:54.924Z,25.19
2019-04-22T05:57:23.379Z,23.10
2019-04-22T06:00:04.720Z,22.72
2019-04-22T06:05:06.955Z,23.55
2019-04-22T06:07:41.801Z,23.12
2019-04-22T06:10:17.376Z,22.89
2019-04-22T06:12:43.317Z,22.93
2019-04-22T06:15:23.377Z,21.31
2019-04-22T06:18:12.427Z,22.50
2019-04-22T06:20:37.281Z,22.27
2019-04-22T06:23:19.056Z,21.25
2019-04-22T06:31:24.467Z,22.67
2019-04-22T06:33:34.712Z,23.31
2019-04-22T06:36:09.481Z,23.14
2019-04-22T06:38:39.191Z,24.32
2019-04-22T06:41:16.449Z,24.65
2019-04-22T06:43:56.183Z,24.74
2019-04-22T06:46:21.170Z,25.10
2019-04-22T06:48:50.472Z,25.92
2019-04-22T06:51:31.097Z,26.05
2019-04-22T06:54:05.171Z,26.17
2019-04-22T06:56:38.805Z,27.36
2019-04-22T06:59:10.026Z,26.60
2019-04-22T07:01:44.428Z,25.50
2019-04-22T07:04:14.113Z,24.92
2019-04-22T07:06:48.331Z,24.99
2019-04-22T07:09:34.960Z,25.14
2019-04-22T07:11:53.087Z,24.61
2019-04-22T07:14:22.725Z,24.91
2019-04-22T07:17:00.902Z,25.20
2019-04-22T07:19:40.939Z,25.41
2019-04-22T07:24:46.356Z,24.91
2019-04-22T07:27:18.958Z,24.97
2019-04-22T07:29:58.485Z,25.07
2019-04-22T07:32:25.358Z,25.24
2019-04-22T07:35:03.766Z,26.11
2019-04-22T07:39:56.552Z,26.11
2019-04-22T07:45:13.125Z,24.87
2019-04-22T07:47:46.216Z,25.34
2019-04-22T07:50:25.401Z,25.36
2019-04-22T07:52:46.747Z,24.72
2019-04-22T07:55:25.061Z,25.07
2019-04-22T07:58:01.882Z,25.29
2019-04-22T08:00:33.071Z,25.27
2019-04-22T08:03:06.595Z,25.41
2019-04-22T08:05:45.009Z,24.77
2019-04-22T08:08:17.431Z,25.27
2019-04-22T08:13:22.952Z,24.82
2019-04-22T08:15:53.993Z,25.32
2019-04-22T08:18:28.960Z,24.88
2019-04-22T08:21:03.167Z,24.73
2019-04-22T08:23:31.684Z,25.06
2019-04-22T08:26:01.127Z,25.37
2019-04-22T08:28:40.755Z,26.01
2019-04-22T08:31:18.752Z,26.30
2019-04-22T08:33:47.097Z,26.22
2019-04-22T08:36:17.952Z,25.84
2019-04-22T08:38:54.239Z,26.10
2019-04-22T08:49:06.510Z,25.24
2019-04-22T08:51:36.238Z,25.50
2019-04-22T08:54:17.948Z,25.55
2019-04-22T08:56:52.343Z,25.77
2019-04-22T08:59:28.142Z,25.66
2019-04-22T09:02:07.723Z,25.41
2019-04-22T09:04:32.859Z,24.85
2019-04-22T09:07:26.499Z,25.61
2019-04-22T09:09:44.755Z,25.15
2019-04-22T09:12:23.995Z,24.65
2019-04-22T09:14:47.514Z,24.57
2019-04-22T09:17:35.125Z,24.05
2019-04-22T09:20:04.115Z,24.20
2019-04-22T09:22:47.086Z,24.26
2019-04-22T09:25:18.719Z,23.99
2019-04-22T09:27:45.378Z,24.34
2019-04-22T09:30:15.122Z,24.14
2019-04-22T09:32:44.839Z,24.53
2019-04-22T09:35:21.487Z,24.48
2019-04-22T09:37:57.310Z,24.63
2019-04-22T09:40:41.897Z,24.75
2019-04-22T09:42:56.039Z,24.29
2019-04-22T09:45:27.554Z,24.25
2019-04-22T09:48:08.362Z,23.03
2019-04-22T09:50:43.131Z,23.34
2019-04-22T09:53:17.559Z,22.70
2019-04-22T09:55:55.211Z,23.42
2019-04-22T09:58:20.912Z,22.64
2019-04-22T10:01:18.723Z,22.06
2019-04-22T10:03:54.620Z,21.99
2019-04-22T10:06:32.016Z,21.58
2019-04-22T10:14:16.982Z,21.98
2019-04-22T10:16:44.974Z,22.08
2019-04-22T10:19:18.772Z,21.54
2019-04-22T10:21:54.887Z,21.34
2019-04-22T10:24:19.191Z,21.22
2019-04-22T10:26:50.581Z,21.72
2019-04-22T10:29:24.435Z,21.54
2019-04-22T10:32:02.973Z,21.26
2019-04-22T10:34:16.766Z,20.90
2019-04-22T10:36:52.663Z,21.24
2019-04-22T10:39:34.334Z,21.12
2019-04-22T10:41:59.060Z,20.47
2019-04-22T10:44:31.267Z,20.84
2019-04-22T10:47:04.243Z,21.21
2019-04-22T10:49:38.334Z,21.53
2019-04-22T10:52:12.844Z,20.41
2019-04-22T10:54:45.495Z,21.15
2019-04-22T10:57:16.266Z,21.23
2019-04-22T10:59:52.752Z,21.25
2019-04-22T11:02:23.471Z,20.33
2019-04-22T11:04:56.342Z,20.74
2019-04-22T11:07:35.988Z,20.71
2019-04-22T11:10:20.633Z,20.73
2019-04-22T11:12:39.551Z,20.25
2019-04-22T11:15:14.303Z,20.20
2019-04-22T11:17:45.204Z,19.83
2019-04-22T11:20:15.909Z,20.54
2019-04-22T11:22:46.749Z,20.92
2019-04-22T11:25:18.056Z,20.45
2019-04-22T11:27:49.377Z,20.90
2019-04-22T11:30:24.063Z,20.22
2019-04-22T11:32:54.209Z,20.08
2019-04-22T11:35:28.032Z,20.94
2019-04-22T11:38:01.101Z,20.45
2019-04-22T11:40:38.387Z,20.52
2019-04-22T11:43:06.367Z,20.53
2019-04-22T11:45:39.649Z,20.68
2019-04-22T11:48:13.270Z,20.45
2019-04-22T11:50:44.097Z,20.85
2019-04-22T11:53:14.833Z,20.85
2019-04-22T11:55:46.739Z,20.24
2019-04-22T11:58:18.973Z,20.34
2019-04-22T12:00:51.509Z,20.42
2019-04-22T12:03:22.930Z,20.86
2019-04-22T12:05:57.714Z,20.41
2019-04-22T12:08:29.098Z,20.50
2019-04-22T12:11:05.503Z,20.80
2019-04-22T12:13:35.830Z,20.96
2019-04-22T12:16:07.530Z,20.85
2019-04-22T12:18:39.591Z,21.45
2019-04-22T12:21:13.131Z,21.49
2019-04-22T12:23:45.198Z,21.33
2019-04-22T12:26:19.056Z,21.93
2019-04-22T12:28:49.044Z,21.89
2019-04-22T12:31:19.816Z,21.17
2019-04-22T12:33:50.547Z,21.18
2019-04-22T12:36:22.583Z,20.97
2019-04-22T12:38:53.751Z,20.32
2019-04-22T12:41:25.865Z,20.08
2019-04-22T12:44:01.488Z,20.10
2019-04-22T12:46:32.419Z,20.07
2019-04-22T12:49:04.427Z,20.42
2019-04-22T12:51:36.679Z,20.57
2019-04-22T12:54:08.835Z,20.77
2019-04-22T12:56:39.744Z,20.64
2019-04-22T12:59:11.731Z,20.46
2019-04-22T13:01:42.802Z,19.87
2019-04-22T13:04:17.472Z,20.53
2019-04-22T13:06:46.227Z,20.58
2019-04-22T13:09:19.065Z,20.75
2019-04-22T13:11:52.948Z,20.24
2019-04-22T13:14:25.023Z,20.22
2019-04-22T13:16:55.777Z,20.01
2019-04-22T13:19:28.378Z,20.16
2019-04-22T13:22:00.752Z,19.79
2019-04-22T13:24:34.175Z,19.70
2019-04-22T13:27:06.558Z,19.82
2019-04-22T13:29:39.020Z,19.45
2019-04-22T13:32:10.879Z,19.11
2019-04-22T13:34:46.632Z,19.19
2019-04-22T13:37:17.005Z,19.48
2019-04-22T13:39:48.985Z,19.69
2019-04-22T13:42:23.148Z,19.65
2019-04-22T13:44:53.811Z,19.17
2019-04-22T13:47:41.979Z,19.65
2019-04-22T13:50:41.170Z,19.47
2019-04-22T13:55:36.695Z,18.99
2019-04-22T13:57:53.876Z,19.28
2019-04-22T14:00:18.417Z,19.29
2019-04-22T14:03:00.587Z,19.58
2019-04-22T14:05:32.927Z,20.37
2019-04-22T14:08:07.900Z,20.06
2019-04-22T14:10:38.804Z,19.91
2019-04-22T14:13:09.948Z,20.04
2019-04-22T14:15:43.572Z,20.09
2019-04-22T14:18:14.830Z,19.87
2019-04-22T14:20:46.956Z,19.80
2019-04-22T14:23:17.931Z,19.64
2019-04-22T14:25:50.809Z,19.80
2019-04-22T14:28:23.301Z,19.82
2019-04-22T14:30:54.702Z,19.96
2019-04-22T14:33:27.880Z,19.92
2019-04-22T14:36:00.601Z,20.20
2019-04-22T14:38:32.450Z,20.45
2019-04-22T14:41:03.267Z,20.48
2019-04-22T14:44:00.666Z,20.72
2019-04-22T14:46:36.612Z,20.73
2019-04-22T14:49:02.733Z,20.91
2019-04-22T14:51:31.905Z,20.65
2019-04-22T14:54:01.637Z,20.57
2019-04-22T14:56:20.271Z,20.66
2019-04-22T14:59:07.268Z,20.80
2019-04-22T15:01:33.211Z,20.71
2019-04-22T15:04:05.462Z,20.53
2019-04-22T15:06:38.025Z,20.22
2019-04-22T15:09:10.316Z,20.42
2019-04-22T15:11:50.801Z,20.55
2019-04-22T15:14:15.196Z,20.13
2019-04-22T15:17:04.953Z,20.25
2019-04-22T15:19:39.947Z,20.56
2019-04-22T15:22:16.774Z,20.29
2019-04-22T15:24:47.741Z,20.45
2019-04-22T15:27:20.314Z,20.65
2019-04-22T15:29:51.719Z,20.78
2019-04-22T15:32:23.251Z,20.85
2019-04-22T15:34:57.423Z,20.47
2019-04-22T15:37:28.394Z,20.54
2019-04-22T15:40:00.479Z,20.57
2019-04-22T15:42:37.471Z,20.66
2019-04-22T15:45:08.685Z,21.08
2019-04-22T15:47:40.029Z,21.10
2019-04-22T15:50:12.386Z,21.41
2019-04-22T15:52:50.015Z,21.46
2019-04-22T15:55:18.768Z,21.63
2019-04-22T15:57:51.980Z,21.70
2019-04-22T16:00:36.761Z,22.19
2019-04-22T16:02:57.274Z,21.76
2019-04-22T16:05:28.266Z,21.80
2019-04-22T16:08:01.294Z,22.44
2019-04-22T16:10:33.579Z,22.02
2019-04-22T16:13:15.068Z,22.20
2019-04-22T16:15:40.437Z,22.23
2019-04-22T16:18:14.978Z,23.12
2019-04-22T16:20:46.369Z,22.67
2019-04-22T16:23:24.506Z,22.85
2019-04-22T16:25:59.153Z,22.78
2019-04-22T16:28:31.566Z,23.07
2019-04-22T16:31:03.985Z,23.54
2019-04-22T16:33:39.920Z,23.94
2019-04-22T16:36:09.233Z,23.99
2019-04-22T16:38:42.650Z,24.71
2019-04-22T16:41:17.121Z,25.01
2019-04-22T16:43:51.193Z,25.22
2019-04-22T16:46:27.777Z,25.23
2019-04-22T16:48:58.524Z,25.69
2019-04-22T16:51:32.135Z,25.74
2019-04-22T16:54:06.485Z,25.98
2019-04-22T16:56:37.192Z,26.68
2019-04-22T16:59:12.739Z,26.76
2019-04-22T17:01:46.288Z,26.93
2019-04-22T17:04:25.329Z,27.32
2019-04-22T17:06:57.479Z,27.63
2019-04-22T17:09:32.030Z,28.04
2019-04-22T17:12:06.081Z,28.33
2019-04-22T17:14:44.192Z,28.94
2019-04-22T17:17:12.706Z,29.02
2019-04-22T17:19:45.149Z,28.96
2019-04-22T17:22:17.445Z,29.08
2019-04-22T17:24:50.262Z,29.51
2019-04-22T17:27:22.280Z,29.51
2019-04-22T17:29:54.642Z,29.79
2019-04-22T17:32:28.728Z,30.16
2019-04-22T17:34:59.505Z,30.66
2019-04-22T17:37:35.174Z,30.84
2019-04-22T17:40:19.608Z,30.87
2019-04-22T17:43:00.944Z,30.88
2019-04-22T17:45:50.833Z,31.27
2019-04-22T17:48:30.921Z,31.48
2019-04-22T17:51:20.619Z,31.49
2019-04-22T17:53:46.691Z,31.39
2019-04-22T17:56:15.182Z,31.40
2019-04-22T17:58:51.539Z,31.37
2019-04-22T18:01:39.741Z,31.78
2019-04-22T18:03:55.534Z,31.93
2019-04-22T18:06:48.817Z,31.75
2019-04-22T18:09:27.677Z,31.98
2019-04-22T18:11:57.412Z,32.51
2019-04-22T18:17:07.072Z,33.25
2019-04-22T18:19:35.142Z,33.21
2019-04-22T18:22:09.173Z,33.12
2019-04-22T18:24:35.195Z,32.74
2019-04-22T18:27:37.546Z,32.63
2019-04-22T18:29:48.459Z,32.37
2019-04-22T18:32:13.520Z,33.01
2019-04-22T18:34:51.667Z,32.79
2019-04-22T18:37:36.154Z,32.28
2019-04-22T18:40:10.211Z,32.46
2019-04-22T18:42:45.827Z,32.34
2019-04-22T18:45:35.137Z,32.16
2019-04-22T18:47:43.952Z,31.95
2019-04-22T18:50:30.750Z,31.62
2019-04-22T18:53:07.104Z,32.07
2019-04-22T18:55:47.102Z,32.37
2019-04-22T18:58:22.746Z,31.83
2019-04-22T19:00:44.077Z,32.78
2019-04-22T19:03:22.681Z,32.67
2019-04-22T19:06:27.628Z,33.10
2019-04-22T19:08:43.345Z,33.14
2019-04-22T19:11:17.458Z,33.19
2019-04-22T19:16:33.464Z,33.26
2019-04-22T19:19:19.273Z,33.29
2019-04-22T19:21:32.457Z,32.86
2019-04-22T19:24:03.137Z,32.46
2019-04-22T19:29:12.376Z,32.08
2019-04-22T19:31:49.652Z,32.31
2019-04-22T19:34:16.620Z,32.11
2019-04-22T19:36:51.844Z,32.93
2019-04-22T19:39:18.219Z,32.81
2019-04-22T19:42:08.171Z,33.27
2019-04-22T19:44:36.350Z,33.40
2019-04-22T19:47:19.596Z,33.89
2019-04-22T19:49:48.381Z,34.48
2019-04-22T19:54:41.981Z,34.48
2019-04-22T19:57:21.531Z,34.07
2019-04-22T20:00:05.415Z,33.38
2019-04-22T20:02:51.546Z,33.54
2019-04-22T20:05:43.609Z,32.65
2019-04-22T20:08:14.477Z,33.28
2019-04-22T20:10:47.105Z,33.14
2019-04-22T20:13:24.290Z,32.78
2019-04-22T20:15:43.794Z,32.94
2019-04-22T20:20:58.305Z,32.47
2019-04-22T20:23:24.264Z,32.89
2019-04-22T20:25:56.159Z,33.16
2019-04-22T20:28:37.909Z,33.56
2019-04-22T20:31:18.955Z,33.37
2019-04-22T20:33:49.868Z,33.32
2019-04-22T20:36:39.795Z,33.61
2019-04-22T20:38:58.181Z,33.00
2019-04-22T20:41:24.915Z,32.30
2019-04-22T20:44:05.160Z,33.00
2019-04-22T20:46:36.077Z,32.77
2019-04-22T20:49:09.602Z,33.25
2019-04-22T20:51:53.434Z,34.03
2019-04-22T20:54:12.199Z,34.00
2019-04-22T20:56:47.788Z,34.09
2019-04-22T20:59:20.231Z,34.37
2019-04-22T21:01:52.562Z,34.87
2019-04-22T21:04:17.239Z,33.73
2019-04-22T21:06:52.793Z,33.23
2019-04-22T21:09:36.668Z,32.97
2019-04-22T21:11:59.107Z,32.81
2019-04-22T21:14:32.294Z,32.94
2019-04-22T21:17:13.055Z,33.04
2019-04-22T21:19:47.949Z,33.23
2019-04-22T21:22:19.403Z,33.58
2019-04-22T21:24:43.749Z,33.52
2019-04-22T21:27:32.730Z,33.08
2019-04-22T21:29:48.489Z,33.06
2019-04-22T21:32:24.132Z,33.36
2019-04-22T21:35:07.649Z,32.98
2019-04-22T21:37:38.061Z,33.19
2019-04-22T21:39:58.903Z,33.17
2019-04-22T21:42:41.681Z,33.07
2019-04-22T21:45:07.241Z,33.17
2019-04-22T21:47:51.522Z,33.61
2019-04-22T21:50:36.071Z,33.86
2019-04-22T21:52:59.460Z,33.87
2019-04-22T21:55:23.907Z,34.04
2019-04-22T21:58:08.010Z,34.34
2019-04-22T22:00:43.512Z,34.06
2019-04-22T22:03:12.813Z,33.40
2019-04-22T22:05:34.230Z,33.32
2019-04-22T22:08:23.109Z,32.81
2019-04-22T22:10:52.555Z,32.96
2019-04-22T22:13:24.681Z,33.09
2019-04-22T22:15:56.352Z,34.30
2019-04-22T22:18:30.670Z,33.75
2019-04-22T22:21:30.970Z,34.18
2019-04-22T22:23:42.392Z,34.50
2019-04-22T22:26:09.468Z,34.94
2019-04-22T22:29:07.778Z,34.92
2019-04-22T22:31:28.568Z,35.06
2019-04-22T22:33:51.458Z,35.36
2019-04-22T22:36:26.735Z,35.73
2019-04-22T22:38:54.543Z,36.52
2019-04-22T22:41:12.033Z,37.42
2019-04-22T22:43:49.307Z,37.88
2019-04-22T22:46:29.317Z,37.96
2019-04-22T22:49:18.661Z,36.75
2019-04-22T22:51:57.352Z,36.26
2019-04-22T22:54:23.669Z,36.35
2019-04-22T22:57:05.333Z,36.61
2019-04-22T22:59:29.336Z,37.17
2019-04-22T23:01:54.570Z,37.54
2019-04-22T23:04:32.891Z,37.95
2019-04-22T23:07:11.538Z,38.09
2019-04-22T23:09:38.699Z,38.24
2019-04-22T23:12:28.887Z,38.82
2019-04-22T23:14:44.223Z,39.45
2019-04-22T23:17:05.181Z,39.22
2019-04-22T23:19:31.851Z,39.47
2019-04-22T23:22:06.476Z,39.63
2019-04-22T23:24:58.226Z,39.81
2019-04-22T23:27:40.160Z,39.67
2019-04-22T23:30:06.430Z,39.65
2019-04-22T23:32:39.960Z,39.21
2019-04-22T23:35:27.006Z,38.75
2019-04-22T23:37:57.305Z,39.16
2019-04-22T23:40:34.355Z,39.55
2019-04-22T23:43:17.284Z,39.37
2019-04-22T23:45:41.663Z,39.42
2019-04-22T23:48:10.185Z,39.55
2019-04-22T23:50:45.976Z,39.41
2019-04-22T23:53:55.689Z,39.11
2019-04-22T23:56:04.305Z,38.16
